Time;durP1;ratioP1;P1;durP2;ratioP2;P2;SDS_P1;SDS_P2;PMS_P1;PMS_P2;Temp;Humidity;BMP_temperature;BMP_pressure;BME280_temperature;BME280_humidity;BME280_pressure;Samples;Min_cycle;Max_cycle;Signal;HPM_P1;HPM_P2
2024/02/14 00:01:58;;;;;;;8.32;3.40;;;;;;;;;;5023601;28;20033;-58
2024/02/14 00:04:23;;;;;;;8.57;3.77;;;;;;;;;;5030392;28;20030;-57
2024/02/14 00:06:48;;;;;;;8.90;3.63;;;;;;;;;;5032585;28;20013;-57
2024/02/14 00:09:13;;;;;;;9.23;3.50;;;;;;;;;;5029466;28;20033;-56
2024/02/14 00:11:38;;;;;;;9.30;3.45;;;;;;;;;;5013915;28;20442;-57
2024/02/14 00:14:03;;;;;;;6.88;3.10;;;;;;;;;;5018993;28;20022;-58
2024/02/14 00:16:31;;;;;;;7.93;3.20;;;;;;;;;;5019722;28;20048;-57
2024/02/14 00:19:14;;;;;;;6.80;3.30;;;;;;;;;;5012660;28;20030;-58
2024/02/14 00:21:41;;;;;;;8.65;3.20;;;;;;;;;;5018381;28;20018;-57
2024/02/14 00:24:06;;;;;;;6.90;3.45;;;;;;;;;;5028401;28;20044;-56
2024/02/14 00:26:32;;;;;;;8.18;3.58;;;;;;;;;;5023457;28;20481;-56
2024/02/14 00:28:57;;;;;;;8.07;2.88;;;;;;;;;;5026163;28;20048;-57
2024/02/14 00:31:23;;;;;;;7.47;3.00;;;;;;;;;;5031377;28;20115;-58
2024/02/14 00:33:49;;;;;;;7.18;2.85;;;;;;;;;;5032087;28;20037;-57
2024/02/14 00:36:14;;;;;;;7.00;2.83;;;;;;;;;;5031621;28;20021;-57
2024/02/14 00:38:40;;;;;;;8.57;2.75;;;;;;;;;;5031935;28;20444;-59
2024/02/14 00:41:05;;;;;;;7.60;3.03;;;;;;;;;;5031868;28;20028;-58
2024/02/14 00:43:30;;;;;;;7.57;2.80;;;;;;;;;;5026127;28;20036;-58
2024/02/14 00:45:56;;;;;;;5.78;2.58;;;;;;;;;;5019483;28;20026;-57
2024/02/14 00:48:21;;;;;;;7.10;2.80;;;;;;;;;;5012285;28;20022;-56
2024/02/14 00:50:47;;;;;;;8.73;3.03;;;;;;;;;;5023967;28;20021;-57
2024/02/14 00:53:13;;;;;;;7.37;3.07;;;;;;;;;;5033382;28;20025;-57
2024/02/14 00:55:38;;;;;;;6.80;2.80;;;;;;;;;;5015896;28;20014;-58
2024/02/14 00:58:05;;;;;;;6.32;2.50;;;;;;;;;;5020645;28;20056;-55
2024/02/14 01:00:31;;;;;;;6.47;3.05;;;;;;;;;;5032408;28;20026;-57
2024/02/14 01:02:57;;;;;;;7.50;2.78;;;;;;;;;;5023423;28;20024;-56
2024/02/14 01:05:22;;;;;;;6.68;2.63;;;;;;;;;;5019294;28;20056;-58
2024/02/14 01:07:47;;;;;;;6.97;2.78;;;;;;;;;;5034441;28;20087;-57
2024/02/14 01:10:13;;;;;;;7.63;2.83;;;;;;;;;;5037018;28;20022;-57
2024/02/14 01:12:39;;;;;;;8.57;2.90;;;;;;;;;;5022693;28;20482;-58
2024/02/14 01:15:05;;;;;;;6.85;2.78;;;;;;;;;;5022260;28;20362;-59
2024/02/14 01:17:31;;;;;;;7.50;3.10;;;;;;;;;;5018654;28;20022;-58
2024/02/14 01:19:57;;;;;;;7.20;3.00;;;;;;;;;;5012671;28;20116;-57
2024/02/14 01:22:23;;;;;;;6.72;2.70;;;;;;;;;;5027655;28;20029;-59
2024/02/14 01:24:48;;;;;;;8.82;2.78;;;;;;;;;;5019539;28;20441;-56
2024/02/14 01:27:13;;;;;;;6.72;2.40;;;;;;;;;;5015312;28;20029;-58
2024/02/14 01:29:38;;;;;;;6.43;2.60;;;;;;;;;;5023490;28;20033;-56
2024/02/14 01:32:04;;;;;;;5.60;2.50;;;;;;;;;;5022286;28;20048;-57
2024/02/14 01:34:30;;;;;;;6.57;2.80;;;;;;;;;;5029969;28;20025;-57
2024/02/14 01:36:55;;;;;;;6.33;2.73;;;;;;;;;;5016166;28;20995;-56
2024/02/14 01:39:21;;;;;;;6.55;2.67;;;;;;;;;;5029342;28;20030;-58
2024/02/14 01:41:49;;;;;;;6.18;2.65;;;;;;;;;;5030671;28;20052;-56
2024/02/14 01:44:15;;;;;;;6.47;2.65;;;;;;;;;;5030600;28;20033;-56
2024/02/14 01:46:40;;;;;;;9.05;2.90;;;;;;;;;;5028387;28;20021;-57
2024/02/14 01:49:05;;;;;;;8.27;2.97;;;;;;;;;;5029815;28;20026;-59
2024/02/14 01:51:31;;;;;;;8.18;2.70;;;;;;;;;;5032625;28;20029;-57
2024/02/14 01:53:57;;;;;;;6.10;2.67;;;;;;;;;;5029681;28;20029;-57
2024/02/14 01:56:22;;;;;;;6.07;2.50;;;;;;;;;;5039718;28;20104;-57
2024/02/14 01:58:48;;;;;;;6.10;2.73;;;;;;;;;;5036419;28;20025;-57
2024/02/14 02:01:13;;;;;;;6.68;2.65;;;;;;;;;;5032058;28;20670;-57
2024/02/14 02:03:38;;;;;;;6.13;2.70;;;;;;;;;;5020797;28;20025;-56
2024/02/14 02:06:05;;;;;;;7.60;2.80;;;;;;;;;;5026149;28;20475;-58
2024/02/14 02:08:30;;;;;;;6.38;2.67;;;;;;;;;;5029451;28;20095;-57
2024/02/14 02:10:55;;;;;;;6.20;2.70;;;;;;;;;;5016184;28;20026;-58
2024/02/14 02:13:20;;;;;;;9.23;2.73;;;;;;;;;;5009487;28;20022;-57
2024/02/14 02:15:46;;;;;;;7.20;2.77;;;;;;;;;;5011344;28;20075;-57
2024/02/14 02:18:11;;;;;;;7.55;2.70;;;;;;;;;;5016245;28;20053;-57
2024/02/14 02:20:38;;;;;;;7.10;2.67;;;;;;;;;;5021116;28;20029;-58
2024/02/14 02:23:03;;;;;;;7.53;2.58;;;;;;;;;;5023568;28;20494;-57
2024/02/14 02:25:29;;;;;;;6.43;2.50;;;;;;;;;;5027200;28;20112;-58
2024/02/14 02:27:56;;;;;;;7.05;2.63;;;;;;;;;;5021606;28;20045;-57
2024/02/14 02:30:23;;;;;;;6.55;2.40;;;;;;;;;;5032029;28;20030;-57
2024/02/14 02:32:50;;;;;;;6.00;2.50;;;;;;;;;;5030214;28;20014;-56
2024/02/14 02:35:15;;;;;;;6.10;2.80;;;;;;;;;;5030793;28;20016;-57
2024/02/14 02:37:40;;;;;;;7.20;2.63;;;;;;;;;;5029796;28;20018;-58
2024/02/14 02:40:07;;;;;;;6.80;2.90;;;;;;;;;;5030188;28;20074;-58
2024/02/14 02:42:32;;;;;;;7.32;2.83;;;;;;;;;;5030608;28;20021;-57
2024/02/14 02:44:57;;;;;;;7.47;2.70;;;;;;;;;;5030351;28;20504;-57
2024/02/14 02:47:22;;;;;;;5.87;2.63;;;;;;;;;;5030882;28;20021;-58
2024/02/14 02:49:48;;;;;;;6.17;2.40;;;;;;;;;;5030163;28;20100;-57
2024/02/14 02:52:13;;;;;;;7.53;2.43;;;;;;;;;;5029302;28;20022;-56
2024/02/14 02:54:43;;;;;;;5.90;2.70;;;;;;;;;;5025361;28;20113;-57
2024/02/14 02:57:09;;;;;;;7.82;3.13;;;;;;;;;;5032042;28;20018;-58
2024/02/14 02:59:35;;;;;;;5.85;2.15;;;;;;;;;;5033918;28;20078;-57
2024/02/14 03:02:00;;;;;;;5.97;2.15;;;;;;;;;;5033774;28;20104;-58
2024/02/14 03:04:25;;;;;;;6.45;2.58;;;;;;;;;;5033807;28;20053;-57
2024/02/14 03:06:50;;;;;;;5.97;2.72;;;;;;;;;;5034093;28;20032;-57
2024/02/14 03:09:17;;;;;;;6.22;2.72;;;;;;;;;;5031821;28;20481;-56
2024/02/14 03:11:45;;;;;;;7.53;2.70;;;;;;;;;;5033440;28;20067;-57
2024/02/14 03:14:10;;;;;;;9.02;2.40;;;;;;;;;;5033489;28;20030;-58
2024/02/14 03:16:37;;;;;;;9.38;2.58;;;;;;;;;;5033779;28;20420;-57
2024/02/14 03:19:03;;;;;;;6.18;2.72;;;;;;;;;;5033857;28;20044;-56
2024/02/14 03:21:28;;;;;;;6.50;2.60;;;;;;;;;;5033675;28;20478;-57
2024/02/14 03:23:54;;;;;;;7.67;3.40;;;;;;;;;;5029034;28;20044;-57
2024/02/14 03:26:19;;;;;;;7.32;2.90;;;;;;;;;;5015515;28;20072;-56
2024/02/14 03:28:44;;;;;;;6.47;2.70;;;;;;;;;;5026353;28;20436;-57
2024/02/14 03:31:14;;;;;;;6.47;2.93;;;;;;;;;;5033358;28;20447;-56
2024/02/14 03:33:39;;;;;;;9.32;2.92;;;;;;;;;;5033128;28;20112;-58
2024/02/14 03:36:04;;;;;;;10.25;2.70;;;;;;;;;;5030737;28;20109;-55
2024/02/14 03:38:31;;;;;;;7.87;2.90;;;;;;;;;;5021816;28;20052;-56
2024/02/14 03:40:56;;;;;;;7.28;2.83;;;;;;;;;;5021532;28;20049;-56
2024/02/14 03:43:23;;;;;;;7.70;2.63;;;;;;;;;;5032789;28;20421;-56
2024/02/14 03:45:48;;;;;;;9.00;3.50;;;;;;;;;;5027666;28;20478;-56
2024/02/14 03:48:13;;;;;;;10.60;4.22;;;;;;;;;;5016636;28;20033;-58
2024/02/14 03:50:39;;;;;;;9.63;3.55;;;;;;;;;;5031114;28;20157;-56
2024/02/14 03:53:04;;;;;;;9.13;3.60;;;;;;;;;;5046858;28;20014;-57
2024/02/14 03:55:30;;;;;;;6.82;2.85;;;;;;;;;;5044767;28;20029;-57
2024/02/14 03:57:55;;;;;;;7.25;2.83;;;;;;;;;;5039954;28;20025;-57
2024/02/14 04:00:22;;;;;;;7.93;2.78;;;;;;;;;;5042055;28;20703;-57
2024/02/14 04:02:48;;;;;;;8.07;3.42;;;;;;;;;;5036759;28;20092;-57
2024/02/14 04:05:13;;;;;;;7.68;2.50;;;;;;;;;;5034756;28;20070;-57
2024/02/14 04:07:38;;;;;;;8.05;2.40;;;;;;;;;;5034838;28;20570;-57
2024/02/14 04:10:04;;;;;;;7.20;2.75;;;;;;;;;;5034768;28;20033;-57
2024/02/14 04:12:29;;;;;;;6.80;2.53;;;;;;;;;;5028422;28;20033;-57
2024/02/14 04:14:54;;;;;;;5.57;2.55;;;;;;;;;;5034037;28;20029;-57
2024/02/14 04:17:19;;;;;;;7.40;2.63;;;;;;;;;;5034524;28;20044;-57
2024/02/14 04:19:44;;;;;;;6.47;2.80;;;;;;;;;;5033084;28;20033;-57
2024/02/14 04:22:10;;;;;;;7.50;2.93;;;;;;;;;;5032839;28;20021;-56
2024/02/14 04:24:36;;;;;;;7.75;2.67;;;;;;;;;;5033290;28;20163;-57
2024/02/14 04:27:02;;;;;;;8.45;3.05;;;;;;;;;;5035256;28;20075;-57
2024/02/14 04:29:30;;;;;;;8.25;2.90;;;;;;;;;;5033513;28;20026;-58
2024/02/14 04:31:55;;;;;;;8.02;2.88;;;;;;;;;;5032554;28;20071;-56
2024/02/14 04:34:21;;;;;;;6.53;2.77;;;;;;;;;;5032995;28;20100;-57
2024/02/14 04:36:46;;;;;;;6.80;3.03;;;;;;;;;;5031860;28;20092;-57
2024/02/14 04:39:11;;;;;;;7.20;3.03;;;;;;;;;;5032652;28;20029;-59
2024/02/14 04:41:37;;;;;;;7.35;2.70;;;;;;;;;;5032223;28;20021;-57
2024/02/14 04:44:03;;;;;;;8.35;3.20;;;;;;;;;;5025236;28;20160;-57
2024/02/14 04:46:29;;;;;;;8.52;3.13;;;;;;;;;;5027650;28;20063;-57
2024/02/14 04:48:55;;;;;;;7.20;3.00;;;;;;;;;;5032030;28;20045;-58
2024/02/14 04:51:20;;;;;;;6.88;2.97;;;;;;;;;;5026434;28;20049;-57
2024/02/14 04:53:46;;;;;;;7.07;3.03;;;;;;;;;;5028761;28;20021;-57
2024/02/14 04:56:12;;;;;;;8.10;3.20;;;;;;;;;;5018683;28;20076;-57
2024/02/14 04:58:37;;;;;;;7.07;3.00;;;;;;;;;;5028947;28;20022;-57
2024/02/14 05:01:02;;;;;;;7.90;2.75;;;;;;;;;;5025974;28;20025;-56
2024/02/14 05:03:27;;;;;;;7.80;2.90;;;;;;;;;;5046692;28;20023;-56
2024/02/14 05:05:53;;;;;;;8.07;2.90;;;;;;;;;;5052961;28;20017;-58
2024/02/14 05:08:18;;;;;;;7.47;3.40;;;;;;;;;;5030846;28;20067;-57
2024/02/14 05:10:43;;;;;;;8.38;3.20;;;;;;;;;;5031428;28;20017;-57
2024/02/14 05:13:08;;;;;;;8.02;3.53;;;;;;;;;;5031312;28;20077;-57
2024/02/14 05:15:35;;;;;;;9.88;3.28;;;;;;;;;;5031354;28;20060;-56
2024/02/14 05:18:00;;;;;;;11.52;3.30;;;;;;;;;;5031035;28;20029;-57
2024/02/14 05:20:25;;;;;;;8.40;3.33;;;;;;;;;;5031432;28;20025;-56
2024/02/14 05:22:50;;;;;;;9.17;2.67;;;;;;;;;;5029684;28;20048;-57
2024/02/14 05:25:15;;;;;;;9.20;2.93;;;;;;;;;;5030714;28;20021;-57
2024/02/14 05:27:41;;;;;;;8.90;2.93;;;;;;;;;;5023531;28;20469;-57
2024/02/14 05:30:06;;;;;;;9.03;3.40;;;;;;;;;;5031230;28;20047;-58
2024/02/14 05:32:32;;;;;;;9.60;3.08;;;;;;;;;;5028422;28;20031;-57
2024/02/14 05:34:57;;;;;;;8.63;3.85;;;;;;;;;;5030892;28;20017;-58
2024/02/14 05:37:22;;;;;;;10.25;3.50;;;;;;;;;;5031206;28;20017;-57
2024/02/14 05:39:47;;;;;;;10.90;3.63;;;;;;;;;;5029386;28;20461;-57
2024/02/14 05:42:13;;;;;;;9.53;3.40;;;;;;;;;;5030526;28;20021;-56
2024/02/14 05:44:38;;;;;;;8.70;3.13;;;;;;;;;;5030906;28;20017;-57
2024/02/14 05:47:03;;;;;;;9.45;3.53;;;;;;;;;;5031285;28;20105;-56
2024/02/14 05:49:29;;;;;;;10.50;3.35;;;;;;;;;;5031038;28;20079;-59
2024/02/14 05:51:54;;;;;;;9.17;3.00;;;;;;;;;;5027129;28;20362;-57
2024/02/14 05:54:19;;;;;;;9.18;3.50;;;;;;;;;;5029514;28;20025;-58
2024/02/14 05:56:44;;;;;;;8.88;3.38;;;;;;;;;;5027779;28;20473;-57
2024/02/14 05:59:10;;;;;;;8.70;3.57;;;;;;;;;;5031136;28;20500;-57
2024/02/14 06:01:35;;;;;;;9.87;3.10;;;;;;;;;;5026128;28;20071;-57
2024/02/14 06:04:00;;;;;;;10.60;3.33;;;;;;;;;;5021461;28;20025;-58
2024/02/14 06:06:25;;;;;;;9.80;3.92;;;;;;;;;;5016741;28;20080;-58
2024/02/14 06:08:50;;;;;;;10.95;3.53;;;;;;;;;;5028331;28;20033;-57
2024/02/14 06:11:16;;;;;;;7.67;3.63;;;;;;;;;;5026334;28;20049;-57
2024/02/14 06:13:41;;;;;;;8.70;3.10;;;;;;;;;;5024908;28;20029;-57
2024/02/14 06:16:08;;;;;;;7.78;3.08;;;;;;;;;;5027507;28;20541;-57
2024/02/14 06:18:33;;;;;;;9.77;3.58;;;;;;;;;;5025177;28;20051;-58
2024/02/14 06:20:58;;;;;;;8.20;3.20;;;;;;;;;;5026578;28;20784;-58
2024/02/14 06:23:23;;;;;;;11.93;3.93;;;;;;;;;;5015922;28;20109;-57
2024/02/14 06:25:48;;;;;;;6.57;2.83;;;;;;;;;;5029376;28;20025;-56
2024/02/14 06:28:13;;;;;;;9.65;3.40;;;;;;;;;;5032692;28;20477;-57
2024/02/14 06:30:39;;;;;;;9.18;3.80;;;;;;;;;;5037243;28;20029;-57
2024/02/14 06:33:04;;;;;;;11.98;3.47;;;;;;;;;;5022061;28;20021;-57
2024/02/14 06:35:29;;;;;;;8.73;3.17;;;;;;;;;;5032074;28;20036;-57
2024/02/14 06:37:54;;;;;;;11.07;4.13;;;;;;;;;;5032841;28;20485;-57
2024/02/14 06:40:20;;;;;;;9.32;3.88;;;;;;;;;;5032963;28;20133;-57
2024/02/14 06:42:45;;;;;;;8.65;3.40;;;;;;;;;;5034122;28;20047;-57
2024/02/14 06:45:10;;;;;;;11.95;3.80;;;;;;;;;;5031540;28;20079;-58
2024/02/14 06:47:35;;;;;;;8.57;3.10;;;;;;;;;;5026165;28;20492;-57
2024/02/14 06:50:00;;;;;;;7.63;3.33;;;;;;;;;;5024691;28;20022;-58
2024/02/14 06:52:26;;;;;;;8.07;3.17;;;;;;;;;;5022617;28;20026;-58
2024/02/14 06:54:51;;;;;;;11.00;3.47;;;;;;;;;;5026707;28;20133;-58
2024/02/14 06:57:17;;;;;;;8.77;3.03;;;;;;;;;;5028093;28;20425;-57
2024/02/14 06:59:42;;;;;;;7.75;3.13;;;;;;;;;;5022456;28;20067;-57
2024/02/14 07:02:08;;;;;;;10.05;3.58;;;;;;;;;;5026945;28;20424;-57
2024/02/14 07:04:33;;;;;;;7.32;3.08;;;;;;;;;;5025096;28;20104;-58
2024/02/14 07:06:58;;;;;;;9.63;4.05;;;;;;;;;;5025020;28;20033;-57
2024/02/14 07:09:25;;;;;;;9.13;3.37;;;;;;;;;;5030229;28;20512;-56
2024/02/14 07:11:50;;;;;;;8.85;3.30;;;;;;;;;;5023409;28;20022;-57
2024/02/14 07:14:15;;;;;;;8.73;3.55;;;;;;;;;;5008954;28;20410;-57
2024/02/14 07:16:41;;;;;;;9.37;3.67;;;;;;;;;;5017077;28;20026;-57
2024/02/14 07:19:06;;;;;;;10.40;3.60;;;;;;;;;;5021332;28;20026;-58
2024/02/14 07:21:32;;;;;;;9.88;3.40;;;;;;;;;;5021952;28;20463;-56
2024/02/14 07:23:58;;;;;;;11.43;3.63;;;;;;;;;;5021443;28;20110;-57
2024/02/14 07:26:23;;;;;;;8.98;3.22;;;;;;;;;;5028446;28;20108;-56
2024/02/14 07:28:48;;;;;;;8.65;3.30;;;;;;;;;;5030315;28;20036;-57
2024/02/14 07:31:13;;;;;;;7.13;2.87;;;;;;;;;;5036286;28;20044;-56
2024/02/14 07:33:38;;;;;;;8.83;3.47;;;;;;;;;;5029976;28;20447;-59
2024/02/14 07:36:04;;;;;;;7.37;3.37;;;;;;;;;;5026944;28;20024;-58
2024/02/14 07:38:29;;;;;;;8.40;3.20;;;;;;;;;;5025727;28;20025;-58
2024/02/14 07:40:54;;;;;;;7.63;3.17;;;;;;;;;;5027060;28;20479;-56
2024/02/14 07:43:19;;;;;;;8.57;3.08;;;;;;;;;;5029336;28;20025;-57
2024/02/14 07:45:44;;;;;;;8.20;3.20;;;;;;;;;;5023876;28;20088;-57
2024/02/14 07:48:09;;;;;;;8.23;3.08;;;;;;;;;;5024821;28;20049;-57
2024/02/14 07:50:35;;;;;;;8.57;2.90;;;;;;;;;;5027357;28;20398;-58
2024/02/14 07:53:01;;;;;;;9.68;3.20;;;;;;;;;;5021214;28;20017;-57
2024/02/14 07:55:26;;;;;;;11.32;3.10;;;;;;;;;;5032811;28;20036;-57
2024/02/14 07:57:52;;;;;;;10.25;3.38;;;;;;;;;;5035071;28;20021;-57
2024/02/14 08:00:22;;;;;;;10.75;3.10;;;;;;;;;;5032149;28;20048;-56
2024/02/14 08:02:47;;;;;;;8.65;3.20;;;;;;;;;;5035175;28;20312;-57
2024/02/14 08:05:12;;;;;;;7.70;3.40;;;;;;;;;;5033599;28;20028;-58
2024/02/14 08:07:38;;;;;;;8.38;3.33;;;;;;;;;;5036654;28;20014;-58
2024/02/14 08:10:04;;;;;;;6.43;2.80;;;;;;;;;;5033136;28;20029;-58
2024/02/14 08:12:30;;;;;;;;;;;;;;;;;;5031748;28;20485;-56
2024/02/14 08:14:55;;;;;;;7.68;3.00;;;;;;;;;;5032408;28;19944;-57
2024/02/14 08:17:20;;;;;;;10.45;3.97;;;;;;;;;;5033522;28;20040;-58
2024/02/14 08:19:46;;;;;;;8.70;3.57;;;;;;;;;;5032741;28;20028;-57
2024/02/14 08:22:12;;;;;;;9.10;3.77;;;;;;;;;;5032755;28;20026;-57
2024/02/14 08:24:37;;;;;;;9.00;3.35;;;;;;;;;;5032270;28;20482;-57
2024/02/14 08:27:06;;;;;;;7.17;3.10;;;;;;;;;;5027027;28;20040;-58
2024/02/14 08:29:31;;;;;;;7.40;3.17;;;;;;;;;;5031366;28;20034;-56
2024/02/14 08:31:56;;;;;;;8.07;2.88;;;;;;;;;;5032628;28;20095;-57
2024/02/14 08:34:21;;;;;;;6.27;3.00;;;;;;;;;;5032317;28;20025;-58
2024/02/14 08:36:47;;;;;;;9.23;2.73;;;;;;;;;;5033036;28;20013;-56
2024/02/14 08:39:12;;;;;;;7.95;3.30;;;;;;;;;;5035505;28;20055;-57
2024/02/14 08:41:38;;;;;;;8.27;3.20;;;;;;;;;;5039769;28;20025;-56
2024/02/14 08:44:04;;;;;;;7.45;2.75;;;;;;;;;;5042252;28;20036;-57
2024/02/14 08:46:30;;;;;;;9.57;3.38;;;;;;;;;;5051314;28;20025;-58
2024/02/14 08:48:55;;;;;;;8.73;2.47;;;;;;;;;;5052501;28;20033;-57
2024/02/14 08:51:20;;;;;;;6.47;2.57;;;;;;;;;;5037998;28;20122;-57
2024/02/14 08:53:45;;;;;;;9.32;2.95;;;;;;;;;;5032212;28;20083;-58
2024/02/14 08:56:10;;;;;;;6.80;2.60;;;;;;;;;;5029455;28;20022;-57
2024/02/14 08:58:36;;;;;;;6.68;2.90;;;;;;;;;;5029090;28;20029;-58
2024/02/14 09:01:01;;;;;;;8.13;3.10;;;;;;;;;;5031771;28;20028;-58
2024/02/14 09:03:26;;;;;;;6.03;2.53;;;;;;;;;;5032589;28;20437;-58
2024/02/14 09:05:53;;;;;;;7.67;2.70;;;;;;;;;;5028867;28;20018;-58
2024/02/14 09:08:18;;;;;;;7.88;2.58;;;;;;;;;;5024390;28;20044;-57
2024/02/14 09:10:43;;;;;;;8.53;2.60;;;;;;;;;;5031189;28;20021;-57
2024/02/14 09:13:09;;;;;;;6.10;2.35;;;;;;;;;;5028243;28;20029;-58
2024/02/14 09:15:34;;;;;;;6.70;2.75;;;;;;;;;;5030530;28;20018;-59
2024/02/14 09:18:00;;;;;;;10.27;2.80;;;;;;;;;;5031357;28;20076;-58
2024/02/14 09:20:25;;;;;;;7.95;2.45;;;;;;;;;;5030224;28;20396;-58
2024/02/14 09:22:50;;;;;;;8.80;2.42;;;;;;;;;;5026401;28;20021;-57
2024/02/14 09:25:15;;;;;;;7.40;2.40;;;;;;;;;;5031738;28;20071;-57
2024/02/14 09:27:41;;;;;;;7.10;2.33;;;;;;;;;;5031741;28;20009;-56
2024/02/14 09:30:07;;;;;;;8.70;2.55;;;;;;;;;;5031866;28;20486;-58
2024/02/14 09:32:32;;;;;;;7.85;2.60;;;;;;;;;;5041673;28;20029;-57
2024/02/14 09:34:58;;;;;;;6.43;2.30;;;;;;;;;;5045878;28;20014;-57
2024/02/14 09:37:23;;;;;;;7.72;2.67;;;;;;;;;;5044179;28;20032;-58
2024/02/14 09:39:48;;;;;;;10.85;2.70;;;;;;;;;;5042368;28;20045;-57
2024/02/14 09:42:15;;;;;;;7.10;2.40;;;;;;;;;;5041204;28;20029;-58
2024/02/14 09:44:40;;;;;;;;;;;;;;;;;;5044503;28;20108;-57
2024/02/14 09:47:05;;;;;;;6.53;2.42;;;;;;;;;;5032324;28;19908;-57
2024/02/14 09:49:31;;;;;;;8.30;2.70;;;;;;;;;;5032973;28;20079;-56
2024/02/14 09:51:57;;;;;;;5.35;2.20;;;;;;;;;;5030866;28;20492;-57
2024/02/14 09:54:22;;;;;;;7.20;2.67;;;;;;;;;;5030854;28;20481;-57
2024/02/14 09:56:50;;;;;;;8.00;2.50;;;;;;;;;;5031638;28;20053;-57
2024/02/14 09:59:15;;;;;;;8.50;3.03;;;;;;;;;;5031839;28;20040;-57
2024/02/14 10:01:41;;;;;;;6.87;2.50;;;;;;;;;;5030632;28;20538;-56
2024/02/14 10:04:06;;;;;;;9.10;2.80;;;;;;;;;;5031669;28;20031;-57
2024/02/14 10:06:33;;;;;;;8.90;2.40;;;;;;;;;;5035705;28;20049;-58
2024/02/14 10:08:58;;;;;;;7.38;2.53;;;;;;;;;;5031052;28;20474;-58
2024/02/14 10:11:27;;;;;;;9.20;2.40;;;;;;;;;;5030577;28;20068;-58
2024/02/14 10:13:53;;;;;;;7.35;2.50;;;;;;;;;;5030661;28;20091;-58
2024/02/14 10:16:19;;;;;;;8.40;2.60;;;;;;;;;;5030749;28;20024;-57
2024/02/14 10:18:46;;;;;;;9.27;2.50;;;;;;;;;;5031170;28;20390;-58
2024/02/14 10:21:11;;;;;;;;;;;;;;;;;;5030789;28;20024;-56
2024/02/14 10:23:37;;;;;;;5.47;2.30;;;;;;;;;;5029078;28;19909;-57
2024/02/14 10:26:02;;;;;;;8.63;2.53;;;;;;;;;;5030944;28;20056;-59
2024/02/14 10:28:28;;;;;;;8.53;2.87;;;;;;;;;;5031321;28;20033;-57
2024/02/14 10:30:54;;;;;;;8.32;3.10;;;;;;;;;;5031874;28;20018;-58
2024/02/14 10:33:19;;;;;;;7.97;3.15;;;;;;;;;;5030750;28;20022;-57
2024/02/14 10:35:45;;;;;;;8.68;3.28;;;;;;;;;;5029738;28;20013;-56
2024/02/14 10:38:11;;;;;;;8.20;2.92;;;;;;;;;;5031328;28;20017;-57
2024/02/14 10:40:38;;;;;;;7.40;3.10;;;;;;;;;;5029623;28;20014;-57
2024/02/14 10:43:04;;;;;;;6.93;2.90;;;;;;;;;;5030946;28;20037;-57
2024/02/14 10:45:29;;;;;;;7.38;3.22;;;;;;;;;;5030728;28;20075;-58
2024/02/14 10:47:57;;;;;;;6.63;2.70;;;;;;;;;;5029200;28;20025;-57
2024/02/14 10:50:24;;;;;;;7.85;2.70;;;;;;;;;;5029759;28;20116;-57
2024/02/14 10:52:49;;;;;;;;;;;;;;;;;;5031268;28;20385;-59
2024/02/14 10:55:15;;;;;;;7.97;2.90;;;;;;;;;;5030668;28;20320;-57
2024/02/14 10:57:41;;;;;;;7.63;2.95;;;;;;;;;;5039258;28;20047;-57
2024/02/14 11:00:09;;;;;;;7.55;3.08;;;;;;;;;;5038669;28;20022;-57
2024/02/14 11:02:34;;;;;;;7.57;3.08;;;;;;;;;;5035307;28;20028;-58
2024/02/14 11:05:02;;;;;;;8.60;2.95;;;;;;;;;;5040348;28;20081;-58
2024/02/14 11:07:28;;;;;;;8.55;2.88;;;;;;;;;;5029479;28;20025;-58
2024/02/14 11:10:00;;;;;;;9.05;3.20;;;;;;;;;;5029452;28;21941;-59
2024/02/14 11:12:25;;;;;;;7.13;3.00;;;;;;;;;;5031250;28;20018;-56
2024/02/14 11:14:52;;;;;;;7.43;2.63;;;;;;;;;;5033233;28;20048;-58
2024/02/14 11:17:24;;;;;;;9.05;3.00;;;;;;;;;;5044381;28;20022;-58
2024/02/14 11:19:50;;;;;;;7.10;2.85;;;;;;;;;;5031157;28;20038;-58
2024/02/14 11:22:20;;;;;;;8.73;2.50;;;;;;;;;;5034621;28;20405;-58
2024/02/14 11:24:45;;;;;;;6.03;2.50;;;;;;;;;;5035519;28;20048;-58
2024/02/14 11:27:11;;;;;;;8.77;3.20;;;;;;;;;;5037728;28;20030;-57
2024/02/14 11:29:38;;;;;;;7.95;2.60;;;;;;;;;;5036647;28;20571;-57
2024/02/14 11:32:08;;;;;;;9.52;3.15;;;;;;;;;;5034909;28;20017;-57
2024/02/14 11:34:33;;;;;;;7.93;3.08;;;;;;;;;;5035641;28;20047;-57
2024/02/14 11:36:59;;;;;;;7.93;3.00;;;;;;;;;;5029063;28;20545;-58
2024/02/14 11:39:24;;;;;;;;;;;;;;;;;;5030296;28;20025;-57
2024/02/14 11:41:50;;;;;;;8.82;3.33;;;;;;;;;;5029726;28;19909;-57
2024/02/14 11:44:15;;;;;;;8.48;2.67;;;;;;;;;;5033540;28;20013;-58
2024/02/14 11:46:41;;;;;;;7.20;2.55;;;;;;;;;;5032023;28;20659;-57
2024/02/14 11:49:07;;;;;;;8.77;2.70;;;;;;;;;;5031981;28;20069;-60
2024/02/14 11:51:33;;;;;;;7.03;2.58;;;;;;;;;;5030777;28;20452;-57
2024/02/14 11:54:04;;;;;;;7.53;2.85;;;;;;;;;;5032942;28;20017;-57
2024/02/14 11:56:36;;;;;;;5.95;2.67;;;;;;;;;;5039203;28;20029;-58
2024/02/14 11:59:02;;;;;;;7.32;2.85;;;;;;;;;;5034429;28;20401;-58
2024/02/14 12:01:28;;;;;;;7.85;2.70;;;;;;;;;;5034796;28;20036;-58
2024/02/14 12:03:53;;;;;;;7.82;2.70;;;;;;;;;;5034994;28;20013;-57
2024/02/14 12:06:19;;;;;;;7.30;2.70;;;;;;;;;;5040700;28;20136;-57
2024/02/14 12:08:44;;;;;;;6.30;2.35;;;;;;;;;;5052911;28;20411;-58
2024/02/14 12:11:09;;;;;;;5.88;2.40;;;;;;;;;;5036946;28;20017;-58
2024/02/14 12:13:37;;;;;;;8.17;2.53;;;;;;;;;;5032061;28;20021;-58
2024/02/14 12:16:03;;;;;;;8.30;2.70;;;;;;;;;;5032691;28;20428;-58
2024/02/14 12:18:28;;;;;;;6.60;2.20;;;;;;;;;;5030881;28;20034;-57
2024/02/14 12:21:02;;;;;;;6.37;2.40;;;;;;;;;;5030734;28;20079;-58
2024/02/14 12:23:27;;;;;;;6.25;2.53;;;;;;;;;;5033529;28;20029;-57
2024/02/14 12:25:53;;;;;;;7.78;2.63;;;;;;;;;;5031856;28;20025;-57
2024/02/14 12:28:19;;;;;;;6.00;2.20;;;;;;;;;;5035328;28;20063;-58
2024/02/14 12:30:55;;;;;;;7.20;2.72;;;;;;;;;;5042452;28;20049;-58
2024/02/14 12:33:21;;;;;;;6.25;2.22;;;;;;;;;;5047869;28;20060;-58
2024/02/14 12:35:48;;;;;;;5.40;2.20;;;;;;;;;;5047717;28;20101;-58
2024/02/14 12:38:13;;;;;;;8.68;2.38;;;;;;;;;;5034151;28;20024;-58
2024/02/14 12:40:44;;;;;;;6.25;2.28;;;;;;;;;;5033408;28;20491;-58
2024/02/14 12:43:09;;;;;;;7.15;2.50;;;;;;;;;;5032275;28;20022;-58
2024/02/14 12:45:34;;;;;;;8.75;3.03;;;;;;;;;;5032458;28;20044;-57
2024/02/14 12:48:00;;;;;;;9.82;2.70;;;;;;;;;;5028242;28;20021;-57
2024/02/14 12:50:25;;;;;;;6.90;2.63;;;;;;;;;;5032106;28;20021;-58
2024/02/14 12:52:50;;;;;;;7.82;3.13;;;;;;;;;;5032549;28;20017;-58
2024/02/14 12:55:16;;;;;;;9.40;3.47;;;;;;;;;;5031994;28;20021;-57
2024/02/14 12:57:41;;;;;;;7.22;3.05;;;;;;;;;;5031838;28;20021;-57
2024/02/14 13:00:08;;;;;;;7.45;3.28;;;;;;;;;;5032230;28;20044;-57
2024/02/14 13:02:33;;;;;;;7.22;2.97;;;;;;;;;;5032391;28;20027;-58
2024/02/14 13:04:59;;;;;;;8.67;2.73;;;;;;;;;;5032723;28;20100;-56
2024/02/14 13:07:24;;;;;;;7.50;3.10;;;;;;;;;;5033082;28;20018;-58
2024/02/14 13:09:49;;;;;;;6.78;2.70;;;;;;;;;;5042205;28;20057;-58
2024/02/14 13:12:14;;;;;;;12.05;3.25;;;;;;;;;;5034265;28;20060;-59
2024/02/14 13:14:40;;;;;;;8.55;2.80;;;;;;;;;;5025967;28;20401;-59
2024/02/14 13:17:05;;;;;;;7.03;2.80;;;;;;;;;;5032105;28;20101;-57
2024/02/14 13:19:30;;;;;;;8.03;2.87;;;;;;;;;;5032222;28;20079;-58
2024/02/14 13:21:55;;;;;;;8.90;3.45;;;;;;;;;;5031725;28;20052;-59
2024/02/14 13:24:20;;;;;;;7.60;3.20;;;;;;;;;;5025753;28;20123;-57
2024/02/14 13:26:46;;;;;;;6.97;2.97;;;;;;;;;;5031540;28;20029;-57
2024/02/14 13:29:11;;;;;;;7.80;3.60;;;;;;;;;;5030242;28;20037;-57
2024/02/14 13:31:36;;;;;;;7.33;3.17;;;;;;;;;;5030679;28;20516;-58
2024/02/14 13:34:03;;;;;;;10.82;3.80;;;;;;;;;;5031038;28;20053;-58
2024/02/14 13:36:28;;;;;;;8.80;3.08;;;;;;;;;;5029747;28;20052;-57
2024/02/14 13:38:53;;;;;;;11.77;3.70;;;;;;;;;;5013872;28;20057;-58
2024/02/14 13:41:19;;;;;;;8.32;3.13;;;;;;;;;;5017303;28;20023;-57
2024/02/14 13:43:44;;;;;;;6.45;2.40;;;;;;;;;;5024832;28;20021;-58
2024/02/14 13:46:09;;;;;;;7.70;2.93;;;;;;;;;;5031449;28;20074;-57
2024/02/14 13:48:34;;;;;;;12.60;3.00;;;;;;;;;;5034108;28;20061;-59
2024/02/14 13:51:00;;;;;;;10.00;2.88;;;;;;;;;;5024854;28;20456;-57
2024/02/14 13:53:26;;;;;;;8.77;2.92;;;;;;;;;;5020743;28;20055;-57
2024/02/14 13:55:51;;;;;;;8.57;3.03;;;;;;;;;;5030255;28;20017;-57
2024/02/14 13:58:17;;;;;;;10.15;3.92;;;;;;;;;;5028930;28;20516;-58
2024/02/14 14:00:42;;;;;;;5.68;1.73;;;;;;;;;;5029735;28;20122;-58
2024/02/14 14:03:07;;;;;;;8.80;3.88;;;;;;;;;;5028415;28;20053;-57
2024/02/14 14:05:32;;;;;;;10.10;4.00;;;;;;;;;;5032742;28;20474;-57
2024/02/14 14:07:59;;;;;;;10.55;3.35;;;;;;;;;;5023018;28;20024;-58
2024/02/14 14:10:27;;;;;;;7.18;2.03;;;;;;;;;;5021785;28;20056;-58
2024/02/14 14:12:52;;;;;;;5.28;1.40;;;;;;;;;;5031110;28;20021;-59
2024/02/14 14:15:17;;;;;;;5.33;1.30;;;;;;;;;;5034180;28;20017;-58
2024/02/14 14:17:43;;;;;;;4.28;1.17;;;;;;;;;;5025899;28;20036;-58
2024/02/14 14:20:08;;;;;;;4.25;1.00;;;;;;;;;;5036741;28;20044;-58
2024/02/14 14:22:33;;;;;;;3.85;1.02;;;;;;;;;;5035853;28;20504;-58
2024/02/14 14:24:58;;;;;;;3.60;0.95;;;;;;;;;;5029383;28;20029;-58
2024/02/14 14:27:24;;;;;;;4.40;0.95;;;;;;;;;;5025734;28;20060;-58
2024/02/14 14:29:49;;;;;;;2.53;0.70;;;;;;;;;;5024574;28;20436;-58
2024/02/14 14:32:16;;;;;;;4.13;0.90;;;;;;;;;;5030009;28;20596;-57
2024/02/14 14:34:41;;;;;;;4.03;1.02;;;;;;;;;;5031222;28;20029;-58